EmailTwitter


Observations de surface / Québec / EGHH

Régions: Québec | Canada | États-Unis | Europe | France | UK | Ailleurs
Station
Affichage
Infos & localisation pour EGHH | Aide pour décoder les METARs

Observations prises le 2017-09-26 à 16H20 UTC à BOURNEMOUTH AIRP, UK (EGHH)

Etat du ciel: quelques nuages.

Température: 18.0 Celsius

Point de rosée: 15.0 Celsius

Humidité relative: 83%

Indice Humidex: 22.

Vents: Sud-sud-ouest à 7 km/h ou 4 noeuds.

Pression au niveau moyen de la mer: 102.10 kilopascals.

Visibilité horizontale: 3.73 milles terrestres ou 5.97 kilomètres.

Observation METAR:

EGHH 261620Z 20004KT 6000 FEW014 18/15 Q1021=